sensor_id;sensor_type;location;lat;lon;timestamp;P1;durP1;ratioP1;P2;durP2;ratioP2
9117;SDS011;4594;50.994;7.126;2022-08-21T00:02:03;12.63;;;7.30;;
9117;SDS011;4594;50.994;7.126;2022-08-21T00:04:38;11.30;;;6.53;;
9117;SDS011;4594;50.994;7.126;2022-08-21T00:07:04;13.53;;;6.43;;
9117;SDS011;4594;50.994;7.126;2022-08-21T00:09:30;8.20;;;5.83;;
9117;SDS011;4594;50.994;7.126;2022-08-21T00:11:55;7.80;;;5.50;;
9117;SDS011;4594;50.994;7.126;2022-08-21T00:14:21;8.13;;;5.73;;
9117;SDS011;4594;50.994;7.126;2022-08-21T00:16:47;6.60;;;5.33;;
9117;SDS011;4594;50.994;7.126;2022-08-21T00:19:13;8.50;;;5.40;;
9117;SDS011;4594;50.994;7.126;2022-08-21T00:21:38;7.17;;;5.70;;
9117;SDS011;4594;50.994;7.126;2022-08-21T00:24:04;17.63;;;6.07;;
9117;SDS011;4594;50.994;7.126;2022-08-21T00:26:30;8.23;;;5.80;;
9117;SDS011;4594;50.994;7.126;2022-08-21T00:28:56;5.23;;;4.73;;
9117;SDS011;4594;50.994;7.126;2022-08-21T00:31:22;6.63;;;5.10;;
9117;SDS011;4594;50.994;7.126;2022-08-21T00:33:47;6.10;;;5.03;;
9117;SDS011;4594;50.994;7.126;2022-08-21T00:36:13;7.27;;;5.10;;
9117;SDS011;4594;50.994;7.126;2022-08-21T00:38:39;6.10;;;5.23;;
9117;SDS011;4594;50.994;7.126;2022-08-21T00:41:06;5.13;;;4.50;;
9117;SDS011;4594;50.994;7.126;2022-08-21T00:43:35;8.03;;;5.53;;
9117;SDS011;4594;50.994;7.126;2022-08-21T00:46:02;5.17;;;4.40;;
9117;SDS011;4594;50.994;7.126;2022-08-21T00:48:29;7.50;;;5.50;;
9117;SDS011;4594;50.994;7.126;2022-08-21T00:51:02;9.27;;;4.93;;
9117;SDS011;4594;50.994;7.126;2022-08-21T00:53:34;6.40;;;5.20;;
9117;SDS011;4594;50.994;7.126;2022-08-21T00:56:04;5.70;;;4.87;;
9117;SDS011;4594;50.994;7.126;2022-08-21T00:58:34;12.63;;;6.00;;
9117;SDS011;4594;50.994;7.126;2022-08-21T01:01:03;8.07;;;5.70;;
9117;SDS011;4594;50.994;7.126;2022-08-21T01:03:32;7.60;;;4.57;;
9117;SDS011;4594;50.994;7.126;2022-08-21T01:06:00;6.43;;;4.97;;
9117;SDS011;4594;50.994;7.126;2022-08-21T01:08:29;6.97;;;5.37;;
9117;SDS011;4594;50.994;7.126;2022-08-21T01:10:55;5.37;;;4.67;;
9117;SDS011;4594;50.994;7.126;2022-08-21T01:13:24;7.60;;;5.23;;
9117;SDS011;4594;50.994;7.126;2022-08-21T01:15:53;5.40;;;4.60;;
9117;SDS011;4594;50.994;7.126;2022-08-21T01:18:22;6.27;;;4.87;;
9117;SDS011;4594;50.994;7.126;2022-08-21T01:23:59;5.70;;;5.20;;
9117;SDS011;4594;50.994;7.126;2022-08-21T01:26:27;8.73;;;5.60;;
9117;SDS011;4594;50.994;7.126;2022-08-21T01:29:05;6.90;;;5.13;;
9117;SDS011;4594;50.994;7.126;2022-08-21T01:32:12;9.83;;;5.10;;
9117;SDS011;4594;50.994;7.126;2022-08-21T01:34:42;6.87;;;5.00;;
9117;SDS011;4594;50.994;7.126;2022-08-21T01:37:11;8.03;;;5.53;;
9117;SDS011;4594;50.994;7.126;2022-08-21T01:39:39;5.60;;;4.83;;
9117;SDS011;4594;50.994;7.126;2022-08-21T01:42:06;5.37;;;4.87;;
9117;SDS011;4594;50.994;7.126;2022-08-21T01:44:32;5.37;;;4.87;;
9117;SDS011;4594;50.994;7.126;2022-08-21T01:47:00;7.00;;;5.03;;
9117;SDS011;4594;50.994;7.126;2022-08-21T01:49:30;6.80;;;5.27;;
9117;SDS011;4594;50.994;7.126;2022-08-21T01:51:55;8.70;;;5.87;;
9117;SDS011;4594;50.994;7.126;2022-08-21T01:54:21;9.60;;;5.93;;
9117;SDS011;4594;50.994;7.126;2022-08-21T01:56:48;6.23;;;5.00;;
9117;SDS011;4594;50.994;7.126;2022-08-21T01:59:17;7.87;;;5.70;;
9117;SDS011;4594;50.994;7.126;2022-08-21T02:01:45;6.03;;;5.03;;
9117;SDS011;4594;50.994;7.126;2022-08-21T02:04:10;6.70;;;5.77;;
9117;SDS011;4594;50.994;7.126;2022-08-21T02:06:37;8.40;;;5.47;;
9117;SDS011;4594;50.994;7.126;2022-08-21T02:09:04;7.30;;;5.37;;
9117;SDS011;4594;50.994;7.126;2022-08-21T02:11:32;8.00;;;5.60;;
9117;SDS011;4594;50.994;7.126;2022-08-21T02:13:58;5.73;;;5.20;;
9117;SDS011;4594;50.994;7.126;2022-08-21T02:16:24;6.43;;;5.50;;
9117;SDS011;4594;50.994;7.126;2022-08-21T02:18:50;5.87;;;5.27;;
9117;SDS011;4594;50.994;7.126;2022-08-21T02:21:16;6.03;;;5.50;;
9117;SDS011;4594;50.994;7.126;2022-08-21T02:23:42;5.93;;;5.37;;
9117;SDS011;4594;50.994;7.126;2022-08-21T02:26:08;5.57;;;4.97;;
9117;SDS011;4594;50.994;7.126;2022-08-21T02:28:35;5.73;;;5.03;;
9117;SDS011;4594;50.994;7.126;2022-08-21T02:31:03;7.30;;;5.67;;
9117;SDS011;4594;50.994;7.126;2022-08-21T02:33:29;6.83;;;4.97;;
9117;SDS011;4594;50.994;7.126;2022-08-21T02:35:55;9.37;;;5.97;;
9117;SDS011;4594;50.994;7.126;2022-08-21T02:38:23;6.70;;;4.97;;
9117;SDS011;4594;50.994;7.126;2022-08-21T02:40:53;8.97;;;5.40;;
9117;SDS011;4594;50.994;7.126;2022-08-21T02:43:20;7.73;;;5.30;;
9117;SDS011;4594;50.994;7.126;2022-08-21T02:45:49;6.20;;;5.10;;
9117;SDS011;4594;50.994;7.126;2022-08-21T02:48:18;7.87;;;4.83;;
9117;SDS011;4594;50.994;7.126;2022-08-21T02:50:51;6.50;;;5.10;;
9117;SDS011;4594;50.994;7.126;2022-08-21T02:53:33;5.83;;;4.73;;
9117;SDS011;4594;50.994;7.126;2022-08-21T02:56:00;7.93;;;5.50;;
9117;SDS011;4594;50.994;7.126;2022-08-21T02:58:32;8.70;;;5.00;;
9117;SDS011;4594;50.994;7.126;2022-08-21T03:01:02;5.67;;;5.13;;
9117;SDS011;4594;50.994;7.126;2022-08-21T03:03:29;6.80;;;5.20;;
9117;SDS011;4594;50.994;7.126;2022-08-21T03:05:55;7.20;;;4.93;;
9117;SDS011;4594;50.994;7.126;2022-08-21T03:08:22;10.20;;;5.30;;
9117;SDS011;4594;50.994;7.126;2022-08-21T03:10:48;8.70;;;5.33;;
9117;SDS011;4594;50.994;7.126;2022-08-21T03:13:16;7.40;;;5.70;;
9117;SDS011;4594;50.994;7.126;2022-08-21T03:15:45;6.23;;;5.27;;
9117;SDS011;4594;50.994;7.126;2022-08-21T03:18:12;6.83;;;5.33;;
9117;SDS011;4594;50.994;7.126;2022-08-21T03:20:39;7.27;;;5.73;;
9117;SDS011;4594;50.994;7.126;2022-08-21T03:23:07;6.63;;;4.97;;
9117;SDS011;4594;50.994;7.126;2022-08-21T03:25:33;9.67;;;5.27;;
9117;SDS011;4594;50.994;7.126;2022-08-21T03:28:01;8.73;;;5.30;;
9117;SDS011;4594;50.994;7.126;2022-08-21T03:30:31;11.27;;;5.93;;
9117;SDS011;4594;50.994;7.126;2022-08-21T03:32:57;6.77;;;5.53;;
9117;SDS011;4594;50.994;7.126;2022-08-21T03:35:25;5.77;;;5.20;;
9117;SDS011;4594;50.994;7.126;2022-08-21T03:37:53;5.50;;;4.90;;
9117;SDS011;4594;50.994;7.126;2022-08-21T03:40:19;9.17;;;5.77;;
9117;SDS011;4594;50.994;7.126;2022-08-21T03:42:49;7.80;;;5.67;;
9117;SDS011;4594;50.994;7.126;2022-08-21T03:45:16;8.57;;;5.80;;
9117;SDS011;4594;50.994;7.126;2022-08-21T03:47:54;7.13;;;5.70;;
9117;SDS011;4594;50.994;7.126;2022-08-21T03:50:27;8.17;;;5.03;;
9117;SDS011;4594;50.994;7.126;2022-08-21T03:52:56;9.07;;;5.63;;
9117;SDS011;4594;50.994;7.126;2022-08-21T03:55:23;8.43;;;5.27;;
9117;SDS011;4594;50.994;7.126;2022-08-21T03:57:49;5.80;;;5.30;;
9117;SDS011;4594;50.994;7.126;2022-08-21T04:00:16;8.83;;;5.40;;
9117;SDS011;4594;50.994;7.126;2022-08-21T04:02:45;8.77;;;5.87;;
9117;SDS011;4594;50.994;7.126;2022-08-21T04:05:12;6.90;;;5.50;;
9117;SDS011;4594;50.994;7.126;2022-08-21T04:07:51;9.67;;;5.70;;
9117;SDS011;4594;50.994;7.126;2022-08-21T04:10:27;5.27;;;4.77;;
9117;SDS011;4594;50.994;7.126;2022-08-21T04:12:55;6.13;;;4.93;;
9117;SDS011;4594;50.994;7.126;2022-08-21T04:15:22;6.93;;;5.40;;
9117;SDS011;4594;50.994;7.126;2022-08-21T04:17:50;8.47;;;6.10;;
9117;SDS011;4594;50.994;7.126;2022-08-21T04:20:16;6.53;;;5.37;;
9117;SDS011;4594;50.994;7.126;2022-08-21T04:22:44;13.27;;;5.20;;
9117;SDS011;4594;50.994;7.126;2022-08-21T04:25:11;12.80;;;5.97;;
9117;SDS011;4594;50.994;7.126;2022-08-21T04:27:38;7.47;;;5.97;;
9117;SDS011;4594;50.994;7.126;2022-08-21T04:30:05;5.93;;;5.37;;
9117;SDS011;4594;50.994;7.126;2022-08-21T04:32:33;6.57;;;4.93;;
9117;SDS011;4594;50.994;7.126;2022-08-21T04:35:07;7.10;;;5.53;;
9117;SDS011;4594;50.994;7.126;2022-08-21T04:37:35;7.17;;;5.53;;
9117;SDS011;4594;50.994;7.126;2022-08-21T04:40:02;6.23;;;5.57;;
9117;SDS011;4594;50.994;7.126;2022-08-21T04:42:29;7.00;;;5.70;;
9117;SDS011;4594;50.994;7.126;2022-08-21T04:44:55;7.47;;;5.30;;
9117;SDS011;4594;50.994;7.126;2022-08-21T04:47:22;8.50;;;5.60;;
9117;SDS011;4594;50.994;7.126;2022-08-21T04:49:49;6.83;;;5.73;;
9117;SDS011;4594;50.994;7.126;2022-08-21T04:52:17;7.03;;;5.77;;
9117;SDS011;4594;50.994;7.126;2022-08-21T04:54:47;9.87;;;6.10;;
9117;SDS011;4594;50.994;7.126;2022-08-21T04:57:16;6.97;;;6.10;;
9117;SDS011;4594;50.994;7.126;2022-08-21T04:59:48;8.57;;;5.43;;
9117;SDS011;4594;50.994;7.126;2022-08-21T05:02:16;6.10;;;5.00;;
9117;SDS011;4594;50.994;7.126;2022-08-21T05:04:43;6.20;;;5.50;;
9117;SDS011;4594;50.994;7.126;2022-08-21T05:07:15;9.63;;;5.67;;
9117;SDS011;4594;50.994;7.126;2022-08-21T05:09:47;10.00;;;5.40;;
9117;SDS011;4594;50.994;7.126;2022-08-21T05:12:13;7.27;;;5.67;;
9117;SDS011;4594;50.994;7.126;2022-08-21T05:14:39;5.90;;;5.20;;
9117;SDS011;4594;50.994;7.126;2022-08-21T05:17:05;7.83;;;5.73;;
9117;SDS011;4594;50.994;7.126;2022-08-21T05:19:31;7.93;;;6.20;;
9117;SDS011;4594;50.994;7.126;2022-08-21T05:21:56;7.23;;;5.93;;
9117;SDS011;4594;50.994;7.126;2022-08-21T05:24:23;6.67;;;5.43;;
9117;SDS011;4594;50.994;7.126;2022-08-21T05:26:49;6.70;;;5.73;;
9117;SDS011;4594;50.994;7.126;2022-08-21T05:29:15;5.80;;;5.30;;
9117;SDS011;4594;50.994;7.126;2022-08-21T05:31:43;6.77;;;5.43;;
9117;SDS011;4594;50.994;7.126;2022-08-21T05:34:10;6.50;;;5.87;;
9117;SDS011;4594;50.994;7.126;2022-08-21T05:36:37;6.07;;;5.20;;
9117;SDS011;4594;50.994;7.126;2022-08-21T05:39:02;7.73;;;6.00;;
9117;SDS011;4594;50.994;7.126;2022-08-21T05:41:28;9.40;;;5.37;;
9117;SDS011;4594;50.994;7.126;2022-08-21T05:43:54;7.37;;;5.03;;
9117;SDS011;4594;50.994;7.126;2022-08-21T05:46:20;9.67;;;5.40;;
9117;SDS011;4594;50.994;7.126;2022-08-21T05:48:46;5.57;;;5.00;;
9117;SDS011;4594;50.994;7.126;2022-08-21T05:51:12;5.33;;;4.73;;
9117;SDS011;4594;50.994;7.126;2022-08-21T05:53:41;6.23;;;4.93;;
9117;SDS011;4594;50.994;7.126;2022-08-21T05:56:08;7.73;;;5.10;;
9117;SDS011;4594;50.994;7.126;2022-08-21T05:58:36;6.03;;;4.63;;
9117;SDS011;4594;50.994;7.126;2022-08-21T06:01:02;6.00;;;4.90;;
9117;SDS011;4594;50.994;7.126;2022-08-21T06:03:30;6.13;;;4.70;;
9117;SDS011;4594;50.994;7.126;2022-08-21T06:05:59;5.50;;;4.83;;
9117;SDS011;4594;50.994;7.126;2022-08-21T06:08:25;4.60;;;4.20;;
9117;SDS011;4594;50.994;7.126;2022-08-21T06:10:52;9.50;;;5.20;;
9117;SDS011;4594;50.994;7.126;2022-08-21T06:13:20;6.33;;;3.83;;
9117;SDS011;4594;50.994;7.126;2022-08-21T06:15:47;5.47;;;4.53;;
9117;SDS011;4594;50.994;7.126;2022-08-21T06:18:14;8.57;;;4.50;;
9117;SDS011;4594;50.994;7.126;2022-08-21T06:20:40;4.63;;;4.23;;
9117;SDS011;4594;50.994;7.126;2022-08-21T06:23:07;8.37;;;3.87;;
9117;SDS011;4594;50.994;7.126;2022-08-21T06:25:33;6.47;;;4.40;;
9117;SDS011;4594;50.994;7.126;2022-08-21T06:28:02;6.63;;;4.53;;
9117;SDS011;4594;50.994;7.126;2022-08-21T06:30:32;6.23;;;4.33;;
9117;SDS011;4594;50.994;7.126;2022-08-21T06:32:59;12.03;;;4.33;;
9117;SDS011;4594;50.994;7.126;2022-08-21T06:35:25;8.53;;;4.60;;
9117;SDS011;4594;50.994;7.126;2022-08-21T06:37:51;6.00;;;3.90;;
9117;SDS011;4594;50.994;7.126;2022-08-21T06:40:17;4.37;;;3.97;;
9117;SDS011;4594;50.994;7.126;2022-08-21T06:42:43;7.13;;;3.77;;
9117;SDS011;4594;50.994;7.126;2022-08-21T06:45:09;4.73;;;2.87;;
9117;SDS011;4594;50.994;7.126;2022-08-21T06:47:35;6.00;;;3.13;;
9117;SDS011;4594;50.994;7.126;2022-08-21T06:50:01;4.33;;;3.60;;
9117;SDS011;4594;50.994;7.126;2022-08-21T06:52:28;6.47;;;3.20;;
9117;SDS011;4594;50.994;7.126;2022-08-21T06:54:54;6.53;;;3.30;;
9117;SDS011;4594;50.994;7.126;2022-08-21T06:57:19;5.50;;;3.10;;
9117;SDS011;4594;50.994;7.126;2022-08-21T06:59:46;6.67;;;3.20;;
9117;SDS011;4594;50.994;7.126;2022-08-21T07:02:12;6.47;;;3.40;;
9117;SDS011;4594;50.994;7.126;2022-08-21T07:04:38;4.40;;;3.27;;
9117;SDS011;4594;50.994;7.126;2022-08-21T07:07:03;7.03;;;3.23;;
9117;SDS011;4594;50.994;7.126;2022-08-21T07:09:29;6.07;;;3.10;;
9117;SDS011;4594;50.994;7.126;2022-08-21T07:11:55;9.43;;;3.00;;
9117;SDS011;4594;50.994;7.126;2022-08-21T07:14:21;4.13;;;2.57;;
9117;SDS011;4594;50.994;7.126;2022-08-21T07:16:48;3.07;;;2.33;;
9117;SDS011;4594;50.994;7.126;2022-08-21T07:19:15;6.37;;;3.17;;
9117;SDS011;4594;50.994;7.126;2022-08-21T07:21:42;4.20;;;2.33;;
9117;SDS011;4594;50.994;7.126;2022-08-21T07:24:07;4.53;;;2.30;;
9117;SDS011;4594;50.994;7.126;2022-08-21T07:26:33;4.83;;;2.93;;
9117;SDS011;4594;50.994;7.126;2022-08-21T07:29:00;2.77;;;2.40;;
9117;SDS011;4594;50.994;7.126;2022-08-21T07:31:26;4.67;;;2.40;;
9117;SDS011;4594;50.994;7.126;2022-08-21T07:33:52;3.77;;;2.30;;
9117;SDS011;4594;50.994;7.126;2022-08-21T07:36:19;2.97;;;2.33;;
9117;SDS011;4594;50.994;7.126;2022-08-21T07:38:45;5.90;;;2.70;;
9117;SDS011;4594;50.994;7.126;2022-08-21T07:41:15;3.00;;;2.10;;
9117;SDS011;4594;50.994;7.126;2022-08-21T07:43:48;4.63;;;2.00;;
9117;SDS011;4594;50.994;7.126;2022-08-21T07:46:14;5.00;;;2.30;;
9117;SDS011;4594;50.994;7.126;2022-08-21T07:48:40;2.43;;;2.00;;
9117;SDS011;4594;50.994;7.126;2022-08-21T07:51:08;4.90;;;2.10;;
9117;SDS011;4594;50.994;7.126;2022-08-21T07:53:37;4.27;;;1.77;;
9117;SDS011;4594;50.994;7.126;2022-08-21T07:56:04;2.40;;;1.80;;
9117;SDS011;4594;50.994;7.126;2022-08-21T07:58:31;3.97;;;2.23;;
9117;SDS011;4594;50.994;7.126;2022-08-21T08:00:57;6.17;;;2.73;;
9117;SDS011;4594;50.994;7.126;2022-08-21T08:03:23;5.17;;;2.10;;
9117;SDS011;4594;50.994;7.126;2022-08-21T08:05:49;6.53;;;2.10;;
9117;SDS011;4594;50.994;7.126;2022-08-21T08:08:16;2.07;;;1.90;;
9117;SDS011;4594;50.994;7.126;2022-08-21T08:10:42;2.53;;;2.20;;
9117;SDS011;4594;50.994;7.126;2022-08-21T08:13:09;3.43;;;1.83;;
9117;SDS011;4594;50.994;7.126;2022-08-21T08:15:35;2.53;;;1.70;;
9117;SDS011;4594;50.994;7.126;2022-08-21T08:18:02;2.07;;;1.70;;
9117;SDS011;4594;50.994;7.126;2022-08-21T08:20:28;2.10;;;1.60;;
9117;SDS011;4594;50.994;7.126;2022-08-21T08:22:54;2.47;;;1.90;;
9117;SDS011;4594;50.994;7.126;2022-08-21T08:25:21;3.00;;;1.90;;
9117;SDS011;4594;50.994;7.126;2022-08-21T08:27:48;4.10;;;1.70;;
9117;SDS011;4594;50.994;7.126;2022-08-21T08:30:15;1.80;;;1.60;;
9117;SDS011;4594;50.994;7.126;2022-08-21T08:32:44;3.40;;;1.90;;
9117;SDS011;4594;50.994;7.126;2022-08-21T08:35:11;3.97;;;2.07;;
9117;SDS011;4594;50.994;7.126;2022-08-21T08:37:38;5.83;;;2.17;;
9117;SDS011;4594;50.994;7.126;2022-08-21T08:40:06;3.43;;;1.90;;
9117;SDS011;4594;50.994;7.126;2022-08-21T08:42:58;1.80;;;1.70;;
9117;SDS011;4594;50.994;7.126;2022-08-21T08:45:24;4.13;;;1.83;;
9117;SDS011;4594;50.994;7.126;2022-08-21T08:47:52;4.00;;;1.50;;
9117;SDS011;4594;50.994;7.126;2022-08-21T08:50:33;2.30;;;1.20;;
9117;SDS011;4594;50.994;7.126;2022-08-21T08:53:22;7.03;;;2.20;;
9117;SDS011;4594;50.994;7.126;2022-08-21T08:55:56;4.00;;;1.83;;
9117;SDS011;4594;50.994;7.126;2022-08-21T08:58:33;3.03;;;1.40;;
9117;SDS011;4594;50.994;7.126;2022-08-21T09:01:05;2.07;;;1.40;;
9117;SDS011;4594;50.994;7.126;2022-08-21T09:03:41;1.50;;;1.40;;
9117;SDS011;4594;50.994;7.126;2022-08-21T09:08:54;3.17;;;1.47;;
9117;SDS011;4594;50.994;7.126;2022-08-21T09:26:19;2.17;;;1.42;;
9117;SDS011;4594;50.994;7.126;2022-08-21T09:28:51;3.38;;;1.80;;
9117;SDS011;4594;50.994;7.126;2022-08-21T09:31:25;2.92;;;1.70;;
9117;SDS011;4594;50.994;7.126;2022-08-21T09:34:04;4.10;;;1.90;;
9117;SDS011;4594;50.994;7.126;2022-08-21T09:39:11;6.05;;;1.83;;
9117;SDS011;4594;50.994;7.126;2022-08-21T09:41:49;2.55;;;1.30;;
9117;SDS011;4594;50.994;7.126;2022-08-21T09:44:26;1.25;;;1.25;;
9117;SDS011;4594;50.994;7.126;2022-08-21T09:46:56;3.25;;;1.20;;
9117;SDS011;4594;50.994;7.126;2022-08-21T09:52:03;2.13;;;1.33;;
9117;SDS011;4594;50.994;7.126;2022-08-21T09:54:40;2.53;;;1.15;;
9117;SDS011;4594;50.994;7.126;2022-08-21T09:59:53;1.90;;;1.23;;
9117;SDS011;4594;50.994;7.126;2022-08-21T10:02:29;1.80;;;1.10;;
9117;SDS011;4594;50.994;7.126;2022-08-21T10:05:01;1.40;;;0.95;;
9117;SDS011;4594;50.994;7.126;2022-08-21T10:07:40;1.75;;;1.15;;
9117;SDS011;4594;50.994;7.126;2022-08-21T10:10:14;7.68;;;1.13;;
9117;SDS011;4594;50.994;7.126;2022-08-21T10:16:41;3.95;;;1.63;;
9117;SDS011;4594;50.994;7.126;2022-08-21T10:27:50;3.30;;;1.52;;
9117;SDS011;4594;50.994;7.126;2022-08-21T10:33:37;2.50;;;1.20;;
9117;SDS011;4594;50.994;7.126;2022-08-21T10:36:24;2.72;;;1.20;;
9117;SDS011;4594;50.994;7.126;2022-08-21T10:39:21;1.98;;;1.00;;
9117;SDS011;4594;50.994;7.126;2022-08-21T10:44:57;1.85;;;1.10;;
9117;SDS011;4594;50.994;7.126;2022-08-21T10:50:32;2.80;;;1.20;;
9117;SDS011;4594;50.994;7.126;2022-08-21T10:55:40;1.88;;;1.20;;
9117;SDS011;4594;50.994;7.126;2022-08-21T10:58:25;1.40;;;1.30;;
9117;SDS011;4594;50.994;7.126;2022-08-21T11:01:04;4.88;;;1.33;;
9117;SDS011;4594;50.994;7.126;2022-08-21T11:03:54;4.53;;;1.10;;
9117;SDS011;4594;50.994;7.126;2022-08-21T11:06:36;9.15;;;1.15;;
9117;SDS011;4594;50.994;7.126;2022-08-21T11:09:15;2.78;;;1.23;;
9117;SDS011;4594;50.994;7.126;2022-08-21T11:12:03;1.20;;;1.10;;
9117;SDS011;4594;50.994;7.126;2022-08-21T11:18:09;1.83;;;0.93;;
9117;SDS011;4594;50.994;7.126;2022-08-21T11:20:55;2.47;;;1.00;;
9117;SDS011;4594;50.994;7.126;2022-08-21T11:24:02;1.27;;;0.97;;
9117;SDS011;4594;50.994;7.126;2022-08-21T11:29:52;2.33;;;1.33;;
9117;SDS011;4594;50.994;7.126;2022-08-21T11:32:31;1.20;;;1.10;;
9117;SDS011;4594;50.994;7.126;2022-08-21T11:40:58;3.07;;;1.87;;
9117;SDS011;4594;50.994;7.126;2022-08-21T11:44:14;1.50;;;1.40;;
9117;SDS011;4594;50.994;7.126;2022-08-21T11:50:16;1.63;;;1.07;;
9117;SDS011;4594;50.994;7.126;2022-08-21T11:52:54;1.93;;;1.00;;
9117;SDS011;4594;50.994;7.126;2022-08-21T11:55:37;1.77;;;1.03;;
9117;SDS011;4594;50.994;7.126;2022-08-21T11:58:32;1.20;;;1.03;;
9117;SDS011;4594;50.994;7.126;2022-08-21T12:01:14;2.43;;;1.20;;
9117;SDS011;4594;50.994;7.126;2022-08-21T12:03:56;3.13;;;1.33;;
9117;SDS011;4594;50.994;7.126;2022-08-21T12:06:37;1.90;;;1.20;;
9117;SDS011;4594;50.994;7.126;2022-08-21T12:09:07;3.37;;;1.10;;
9117;SDS011;4594;50.994;7.126;2022-08-21T12:12:01;1.50;;;1.27;;
9117;SDS011;4594;50.994;7.126;2022-08-21T12:14:38;2.87;;;1.00;;
9117;SDS011;4594;50.994;7.126;2022-08-21T12:17:17;2.27;;;1.30;;
9117;SDS011;4594;50.994;7.126;2022-08-21T12:20:00;3.53;;;1.30;;
9117;SDS011;4594;50.994;7.126;2022-08-21T12:22:47;1.27;;;1.03;;
9117;SDS011;4594;50.994;7.126;2022-08-21T12:25:35;2.67;;;1.07;;
9117;SDS011;4594;50.994;7.126;2022-08-21T12:28:07;1.87;;;0.90;;
9117;SDS011;4594;50.994;7.126;2022-08-21T12:30:39;2.43;;;1.10;;
9117;SDS011;4594;50.994;7.126;2022-08-21T12:35:49;7.77;;;2.77;;
9117;SDS011;4594;50.994;7.126;2022-08-21T12:38:27;3.13;;;2.57;;
9117;SDS011;4594;50.994;7.126;2022-08-21T12:41:05;2.97;;;1.87;;
9117;SDS011;4594;50.994;7.126;2022-08-21T12:43:42;2.70;;;1.70;;
9117;SDS011;4594;50.994;7.126;2022-08-21T12:46:17;1.67;;;1.40;;
9117;SDS011;4594;50.994;7.126;2022-08-21T12:49:23;2.17;;;1.60;;
9117;SDS011;4594;50.994;7.126;2022-08-21T12:54:29;1.37;;;1.23;;
9117;SDS011;4594;50.994;7.126;2022-08-21T12:57:08;1.97;;;1.20;;
9117;SDS011;4594;50.994;7.126;2022-08-21T12:59:45;2.73;;;0.90;;
9117;SDS011;4594;50.994;7.126;2022-08-21T13:02:20;1.07;;;0.97;;
9117;SDS011;4594;50.994;7.126;2022-08-21T13:04:55;1.37;;;1.10;;
9117;SDS011;4594;50.994;7.126;2022-08-21T13:07:29;2.77;;;1.23;;
9117;SDS011;4594;50.994;7.126;2022-08-21T13:12:43;1.00;;;0.90;;
9117;SDS011;4594;50.994;7.126;2022-08-21T13:15:09;1.70;;;1.23;;
9117;SDS011;4594;50.994;7.126;2022-08-21T13:17:38;3.63;;;1.40;;
9117;SDS011;4594;50.994;7.126;2022-08-21T13:20:21;2.17;;;1.27;;
9117;SDS011;4594;50.994;7.126;2022-08-21T13:22:52;1.23;;;1.13;;
9117;SDS011;4594;50.994;7.126;2022-08-21T13:25:19;1.00;;;0.90;;
9117;SDS011;4594;50.994;7.126;2022-08-21T13:28:23;1.83;;;1.23;;
9117;SDS011;4594;50.994;7.126;2022-08-21T13:30:43;2.77;;;1.10;;
9117;SDS011;4594;50.994;7.126;2022-08-21T13:33:15;2.53;;;1.30;;
9117;SDS011;4594;50.994;7.126;2022-08-21T13:38:20;1.37;;;0.90;;
9117;SDS011;4594;50.994;7.126;2022-08-21T13:40:59;3.43;;;1.00;;
9117;SDS011;4594;50.994;7.126;2022-08-21T13:43:49;1.27;;;1.17;;
9117;SDS011;4594;50.994;7.126;2022-08-21T13:46:24;1.30;;;0.90;;
9117;SDS011;4594;50.994;7.126;2022-08-21T13:48:55;2.70;;;1.40;;
9117;SDS011;4594;50.994;7.126;2022-08-21T13:51:23;2.30;;;1.10;;
9117;SDS011;4594;50.994;7.126;2022-08-21T13:53:49;2.73;;;1.33;;
9117;SDS011;4594;50.994;7.126;2022-08-21T13:56:28;2.70;;;1.23;;
9117;SDS011;4594;50.994;7.126;2022-08-21T13:58:58;1.30;;;1.20;;
9117;SDS011;4594;50.994;7.126;2022-08-21T14:01:30;1.13;;;1.13;;
9117;SDS011;4594;50.994;7.126;2022-08-21T14:04:02;2.03;;;1.30;;
9117;SDS011;4594;50.994;7.126;2022-08-21T14:06:37;1.97;;;1.20;;
9117;SDS011;4594;50.994;7.126;2022-08-21T14:09:13;1.20;;;1.10;;
9117;SDS011;4594;50.994;7.126;2022-08-21T14:12:01;1.20;;;1.10;;
9117;SDS011;4594;50.994;7.126;2022-08-21T14:14:39;1.83;;;1.13;;
9117;SDS011;4594;50.994;7.126;2022-08-21T14:17:07;2.60;;;1.30;;
9117;SDS011;4594;50.994;7.126;2022-08-21T14:19:50;1.93;;;1.40;;
9117;SDS011;4594;50.994;7.126;2022-08-21T14:30:43;2.23;;;1.20;;
9117;SDS011;4594;50.994;7.126;2022-08-21T14:33:10;2.20;;;1.40;;
9117;SDS011;4594;50.994;7.126;2022-08-21T14:35:43;2.33;;;1.30;;
9117;SDS011;4594;50.994;7.126;2022-08-21T14:38:13;1.17;;;1.07;;
9117;SDS011;4594;50.994;7.126;2022-08-21T14:40:43;1.50;;;1.00;;
9117;SDS011;4594;50.994;7.126;2022-08-21T14:43:13;2.63;;;1.30;;
9117;SDS011;4594;50.994;7.126;2022-08-21T14:45:39;1.23;;;1.10;;
9117;SDS011;4594;50.994;7.126;2022-08-21T14:48:06;4.23;;;1.57;;
9117;SDS011;4594;50.994;7.126;2022-08-21T14:50:32;5.70;;;1.40;;
9117;SDS011;4594;50.994;7.126;2022-08-21T14:52:58;3.73;;;1.33;;
9117;SDS011;4594;50.994;7.126;2022-08-21T14:55:24;1.33;;;1.23;;
9117;SDS011;4594;50.994;7.126;2022-08-21T14:57:52;5.83;;;1.30;;
9117;SDS011;4594;50.994;7.126;2022-08-21T15:00:21;1.40;;;1.07;;
9117;SDS011;4594;50.994;7.126;2022-08-21T15:02:50;1.40;;;1.07;;
9117;SDS011;4594;50.994;7.126;2022-08-21T15:05:17;8.30;;;1.37;;
9117;SDS011;4594;50.994;7.126;2022-08-21T15:07:43;1.10;;;1.00;;
9117;SDS011;4594;50.994;7.126;2022-08-21T15:10:10;2.30;;;1.27;;
9117;SDS011;4594;50.994;7.126;2022-08-21T15:12:37;12.03;;;1.50;;
9117;SDS011;4594;50.994;7.126;2022-08-21T15:15:04;1.27;;;1.17;;
9117;SDS011;4594;50.994;7.126;2022-08-21T15:17:32;1.77;;;1.30;;
9117;SDS011;4594;50.994;7.126;2022-08-21T15:19:58;1.93;;;1.40;;
9117;SDS011;4594;50.994;7.126;2022-08-21T15:22:24;1.53;;;1.43;;
9117;SDS011;4594;50.994;7.126;2022-08-21T15:24:49;2.87;;;1.50;;
9117;SDS011;4594;50.994;7.126;2022-08-21T15:27:15;2.70;;;1.30;;
9117;SDS011;4594;50.994;7.126;2022-08-21T15:29:43;2.60;;;1.43;;
9117;SDS011;4594;50.994;7.126;2022-08-21T15:32:21;1.63;;;1.50;;
9117;SDS011;4594;50.994;7.126;2022-08-21T15:34:54;1.77;;;1.10;;
9117;SDS011;4594;50.994;7.126;2022-08-21T15:37:21;1.23;;;1.13;;
9117;SDS011;4594;50.994;7.126;2022-08-21T15:39:49;1.60;;;1.23;;
9117;SDS011;4594;50.994;7.126;2022-08-21T15:42:16;2.70;;;1.40;;
9117;SDS011;4594;50.994;7.126;2022-08-21T15:44:44;6.53;;;1.30;;
9117;SDS011;4594;50.994;7.126;2022-08-21T15:47:13;1.33;;;1.20;;
9117;SDS011;4594;50.994;7.126;2022-08-21T15:49:43;1.97;;;1.43;;
9117;SDS011;4594;50.994;7.126;2022-08-21T15:52:13;1.50;;;1.40;;
9117;SDS011;4594;50.994;7.126;2022-08-21T15:54:41;1.30;;;1.20;;
9117;SDS011;4594;50.994;7.126;2022-08-21T15:57:09;1.33;;;1.03;;
9117;SDS011;4594;50.994;7.126;2022-08-21T15:59:39;1.33;;;1.20;;
9117;SDS011;4594;50.994;7.126;2022-08-21T16:02:11;2.37;;;1.30;;
9117;SDS011;4594;50.994;7.126;2022-08-21T16:04:46;1.40;;;1.17;;
9117;SDS011;4594;50.994;7.126;2022-08-21T16:07:12;3.03;;;1.03;;
9117;SDS011;4594;50.994;7.126;2022-08-21T16:09:38;4.17;;;1.40;;
9117;SDS011;4594;50.994;7.126;2022-08-21T16:12:04;1.40;;;1.10;;
9117;SDS011;4594;50.994;7.126;2022-08-21T16:14:31;1.13;;;0.90;;
9117;SDS011;4594;50.994;7.126;2022-08-21T16:17:01;1.30;;;1.20;;
9117;SDS011;4594;50.994;7.126;2022-08-21T16:19:32;1.37;;;1.13;;
9117;SDS011;4594;50.994;7.126;2022-08-21T16:22:00;1.80;;;1.10;;
9117;SDS011;4594;50.994;7.126;2022-08-21T16:24:25;1.47;;;1.37;;
9117;SDS011;4594;50.994;7.126;2022-08-21T16:26:51;1.57;;;1.47;;
9117;SDS011;4594;50.994;7.126;2022-08-21T16:29:17;0.93;;;0.90;;
9117;SDS011;4594;50.994;7.126;2022-08-21T16:31:44;1.17;;;1.13;;
9117;SDS011;4594;50.994;7.126;2022-08-21T16:34:13;1.20;;;1.10;;
9117;SDS011;4594;50.994;7.126;2022-08-21T16:36:44;1.77;;;1.00;;
9117;SDS011;4594;50.994;7.126;2022-08-21T16:39:10;2.50;;;1.03;;
9117;SDS011;4594;50.994;7.126;2022-08-21T16:41:36;1.53;;;0.97;;
9117;SDS011;4594;50.994;7.126;2022-08-21T16:44:03;3.80;;;1.17;;
9117;SDS011;4594;50.994;7.126;2022-08-21T16:46:32;0.97;;;0.97;;
9117;SDS011;4594;50.994;7.126;2022-08-21T16:49:00;1.70;;;1.20;;
9117;SDS011;4594;50.994;7.126;2022-08-21T16:51:27;1.47;;;1.33;;
9117;SDS011;4594;50.994;7.126;2022-08-21T16:53:54;1.47;;;1.37;;
9117;SDS011;4594;50.994;7.126;2022-08-21T16:56:19;1.43;;;1.20;;
9117;SDS011;4594;50.994;7.126;2022-08-21T16:58:46;1.60;;;1.10;;
9117;SDS011;4594;50.994;7.126;2022-08-21T17:01:16;1.53;;;1.23;;
9117;SDS011;4594;50.994;7.126;2022-08-21T17:03:46;1.23;;;1.13;;